Time;durP1;ratioP1;P1;durP2;ratioP2;P2;SDS_P1;SDS_P2;PMS_P1;PMS_P2;Temp;Humidity;BMP_temperature;BMP_pressure;BME280_temperature;BME280_humidity;BME280_pressure;Samples;Min_cycle;Max_cycle;Signal;HPM_P1;HPM_P2
2024/02/09 00:00:12;;;;;;;2.78;1.15;;;20.60;50.60;;;;;;5070810;28;20042;-62
2024/02/09 00:02:41;;;;;;;3.83;1.35;;;20.60;50.70;;;;;;5078994;28;20037;-62
2024/02/09 00:05:16;;;;;;;;;;;20.50;50.60;;;;;;5076956;28;20040;-62
2024/02/09 00:07:48;;;;;;;2.95;1.10;;;20.50;50.60;;;;;;5075449;28;19912;-65
2024/02/09 00:10:19;;;;;;;2.90;0.98;;;20.50;50.60;;;;;;5077979;28;20454;-65
2024/02/09 00:12:47;;;;;;;2.47;1.25;;;20.50;50.60;;;;;;5078071;28;20378;-65
2024/02/09 00:15:14;;;;;;;2.90;1.00;;;20.50;50.60;;;;;;5080162;28;20581;-65
2024/02/09 00:17:39;;;;;;;2.38;0.95;;;20.50;50.60;;;;;;5080688;28;20480;-65
2024/02/09 00:20:07;;;;;;;3.00;1.00;;;20.50;50.60;;;;;;5081396;28;20067;-65
2024/02/09 00:22:36;;;;;;;2.47;1.08;;;20.50;51.20;;;;;;5078721;28;20028;-65
2024/02/09 00:25:05;;;;;;;;;;;20.50;50.60;;;;;;5077808;28;20090;-65
2024/02/09 00:27:31;;;;;;;2.15;0.98;;;20.40;50.60;;;;;;5075637;28;19912;-65
2024/02/09 00:29:57;;;;;;;2.28;1.00;;;20.40;50.60;;;;;;5076620;28;20105;-65
2024/02/09 00:32:23;;;;;;;2.42;1.00;;;20.40;50.60;;;;;;5081403;28;20024;-65
2024/02/09 00:34:49;;;;;;;2.20;1.00;;;20.40;50.60;;;;;;5076556;28;20535;-65
2024/02/09 00:37:14;;;;;;;2.35;1.08;;;20.40;50.60;;;;;;5076355;28;20859;-65
2024/02/09 00:39:42;;;;;;;2.92;0.90;;;20.40;50.60;;;;;;5077092;28;20116;-65
2024/02/09 00:42:11;;;;;;;1.80;0.80;;;20.40;50.60;;;;;;5077050;28;20023;-65
2024/02/09 00:44:38;;;;;;;2.47;1.05;;;20.40;50.60;;;;;;5078892;28;20051;-65
2024/02/09 00:47:04;;;;;;;1.95;0.93;;;20.40;50.60;;;;;;5078699;28;20086;-65
2024/02/09 00:49:30;;;;;;;2.60;1.10;;;20.30;50.60;;;;;;5077196;28;20021;-65
2024/02/09 00:51:59;;;;;;;2.67;1.00;;;20.30;50.60;;;;;;5075199;28;20050;-65
2024/02/09 00:54:25;;;;;;;1.63;0.90;;;20.30;50.60;;;;;;5075522;28;20056;-65
2024/02/09 00:56:51;;;;;;;2.38;0.90;;;20.30;50.60;;;;;;5078851;28;20068;-65
2024/02/09 00:59:18;;;;;;;1.98;0.98;;;20.30;50.60;;;;;;5078704;28;20028;-65
2024/02/09 01:01:45;;;;;;;1.63;0.90;;;20.30;50.60;;;;;;5081895;28;20040;-65
2024/02/09 01:04:11;;;;;;;1.88;0.90;;;20.30;50.60;;;;;;5083267;28;20115;-65
2024/02/09 01:06:41;;;;;;;1.65;0.90;;;20.30;50.60;;;;;;5082236;28;20384;-65
2024/02/09 01:09:10;;;;;;;2.20;0.90;;;20.30;50.60;;;;;;5080446;28;20021;-65
2024/02/09 01:11:38;;;;;;;1.77;1.10;;;20.30;50.70;;;;;;5081164;28;20031;-65
2024/02/09 02:46:45;;;;;;;1.35;0.80;;;20.00;50.80;;;;;;5077010;28;20070;-62
2024/02/09 03:05:38;;;;;;;2.28;1.00;;;19.90;50.80;;;;;;5077872;28;20502;-62
2024/02/09 03:08:04;;;;;;;1.23;0.75;;;19.90;50.80;;;;;;5082227;28;20155;-63
2024/02/09 03:10:30;;;;;;;1.70;0.82;;;19.90;50.80;;;;;;5076502;28;20103;-62
2024/02/09 03:12:55;;;;;;;1.02;0.80;;;19.90;50.80;;;;;;5079182;28;20527;-63
2024/02/09 03:15:23;;;;;;;1.55;0.70;;;19.90;50.80;;;;;;5078514;28;20100;-62
2024/02/09 03:17:51;;;;;;;1.98;0.90;;;19.90;50.80;;;;;;5079782;28;20074;-61
2024/02/09 03:20:17;;;;;;;1.73;0.90;;;19.90;50.80;;;;;;5078785;28;20612;-62
2024/02/09 03:22:47;;;;;;;1.20;0.80;;;19.90;50.90;;;;;;5079299;28;20040;-62
2024/02/09 03:25:13;;;;;;;;;;;19.80;50.80;;;;;;5078415;28;20063;-61
2024/02/09 03:27:40;;;;;;;1.92;0.80;;;19.80;50.80;;;;;;5076086;28;20045;-65
2024/02/09 03:30:08;;;;;;;1.17;0.70;;;19.80;50.80;;;;;;5075479;28;20112;-65
2024/02/09 03:32:35;;;;;;;1.58;0.88;;;19.80;50.80;;;;;;5078404;28;20550;-65
2024/02/09 03:35:04;;;;;;;1.25;0.80;;;19.80;50.80;;;;;;5075817;28;20365;-65
2024/02/09 03:37:33;;;;;;;1.58;0.80;;;19.80;50.80;;;;;;5079677;28;20047;-68
2024/02/09 03:40:05;;;;;;;0.90;0.80;;;19.80;50.80;;;;;;5077710;28;20372;-68
2024/02/09 03:42:31;;;;;;;1.92;1.00;;;19.80;50.80;;;;;;5074258;28;20036;-68
2024/02/09 03:44:58;;;;;;;1.80;0.90;;;19.80;51.40;;;;;;5075908;28;20028;-68
2024/02/09 03:47:26;;;;;;;1.38;0.80;;;19.80;50.90;;;;;;5078878;28;20032;-68
2024/02/09 03:49:52;;;;;;;1.35;0.80;;;19.80;51.40;;;;;;5079065;28;20028;-68
2024/02/09 03:52:20;;;;;;;1.63;0.82;;;19.80;50.80;;;;;;5077785;28;20016;-68
2024/02/09 03:54:52;;;;;;;1.17;0.85;;;19.80;50.80;;;;;;5078015;28;20020;-68
2024/02/09 03:57:22;;;;;;;1.85;0.90;;;19.80;50.90;;;;;;5077770;28;20480;-68
2024/02/09 03:59:49;;;;;;;1.15;0.80;;;19.80;50.90;;;;;;5080092;28;20024;-68
2024/02/09 04:02:19;;;;;;;0.75;0.65;;;19.80;50.90;;;;;;5078225;28;20029;-68
2024/02/09 04:04:47;;;;;;;;;;;19.80;50.80;;;;;;5081074;28;20097;-68
2024/02/09 04:07:13;;;;;;;1.08;0.80;;;19.70;50.80;;;;;;5078098;28;19912;-68
2024/02/09 04:09:38;;;;;;;1.60;0.70;;;19.80;50.90;;;;;;5077019;28;20028;-68
2024/02/09 04:12:05;;;;;;;1.77;0.80;;;19.80;50.90;;;;;;5079680;28;20385;-68
2024/02/09 04:14:31;;;;;;;1.58;0.85;;;19.70;50.80;;;;;;5078443;28;20116;-68
2024/02/09 04:16:57;;;;;;;1.60;0.75;;;19.70;50.80;;;;;;5070099;28;20025;-68
2024/02/09 04:19:25;;;;;;;1.30;0.70;;;19.70;51.30;;;;;;5080318;28;20101;-68
2024/02/09 04:21:51;;;;;;;1.45;0.73;;;19.80;50.90;;;;;;5076652;28;20107;-68
2024/02/09 04:24:19;;;;;;;1.50;0.70;;;19.70;50.80;;;;;;5076952;28;20031;-68
2024/02/09 04:26:48;;;;;;;2.72;0.82;;;19.70;50.80;;;;;;5074878;28;20151;-68
2024/02/09 04:29:15;;;;;;;1.50;1.00;;;19.70;50.80;;;;;;5079314;28;20093;-68
2024/02/09 04:31:46;;;;;;;2.08;0.80;;;19.70;50.80;;;;;;5079183;28;20030;-68
2024/02/09 04:34:13;;;;;;;1.58;0.82;;;19.70;50.80;;;;;;5061712;28;20101;-68
2024/02/09 04:36:40;;;;;;;1.50;0.85;;;19.70;50.80;;;;;;5080671;28;20017;-68
2024/02/09 04:39:12;;;;;;;1.33;0.70;;;19.70;50.80;;;;;;5083815;28;20040;-67
2024/02/09 04:41:41;;;;;;;1.55;0.80;;;19.70;50.80;;;;;;5080007;28;20031;-68
2024/02/09 04:44:07;;;;;;;1.45;0.70;;;19.70;50.80;;;;;;5081185;28;20029;-68
2024/02/09 04:46:33;;;;;;;1.40;0.75;;;19.70;50.80;;;;;;5082306;28;20048;-67
2024/02/09 04:49:06;;;;;;;2.08;0.88;;;19.70;50.80;;;;;;5082767;28;20028;-62
2024/02/09 04:51:35;;;;;;;1.23;0.80;;;19.70;50.80;;;;;;5082906;28;20050;-63
2024/02/09 04:54:01;;;;;;;1.25;0.77;;;19.70;50.80;;;;;;5081689;28;20048;-62
2024/02/09 04:56:30;;;;;;;1.25;0.80;;;19.70;50.80;;;;;;5082184;28;20102;-62
2024/02/09 04:58:56;;;;;;;1.17;0.80;;;19.70;50.80;;;;;;5081818;28;20421;-63
2024/02/09 05:01:30;;;;;;;2.45;1.00;;;19.70;50.90;;;;;;5083982;28;20812;-62
2024/02/09 05:04:00;;;;;;;1.42;0.80;;;19.70;51.00;;;;;;5083813;28;20322;-63
2024/02/09 05:06:27;;;;;;;1.17;0.80;;;19.70;51.10;;;;;;5081050;28;20035;-63
2024/02/09 05:08:53;;;;;;;1.33;0.80;;;19.70;51.20;;;;;;5081245;28;20112;-63
2024/02/09 05:11:22;;;;;;;2.97;0.90;;;19.70;51.20;;;;;;5080886;28;20468;-62
2024/02/09 05:13:51;;;;;;;1.42;0.90;;;19.70;51.20;;;;;;5080658;28;20028;-64
2024/02/09 05:16:20;;;;;;;2.03;1.00;;;19.70;51.30;;;;;;5080737;28;20107;-62
2024/02/09 05:18:47;;;;;;;;;;;19.70;51.30;;;;;;5079862;28;20040;-62
2024/02/09 05:21:13;;;;;;;1.20;0.70;;;19.70;51.40;;;;;;5071646;28;19904;-63
2024/02/09 05:23:38;;;;;;;1.58;0.80;;;19.70;51.30;;;;;;5080984;28;20031;-62
2024/02/09 05:26:08;;;;;;;1.65;0.80;;;19.70;51.30;;;;;;5078715;28;20464;-63
2024/02/09 05:28:41;;;;;;;1.52;0.82;;;19.70;51.40;;;;;;5081834;28;20046;-63
2024/02/09 05:31:19;;;;;;;2.15;1.00;;;19.70;51.40;;;;;;5080943;28;20148;-63
2024/02/09 05:33:45;;;;;;;1.95;0.80;;;19.70;51.40;;;;;;5081432;28;20025;-62
2024/02/09 05:36:25;;;;;;;1.55;0.80;;;19.70;51.40;;;;;;5082094;28;20028;-63
2024/02/09 05:38:55;;;;;;;2.50;0.90;;;19.70;51.40;;;;;;5079424;28;20059;-62
2024/02/09 05:41:21;;;;;;;2.53;1.05;;;19.70;51.40;;;;;;5070233;28;20036;-64
2024/02/09 05:43:48;;;;;;;1.95;1.05;;;19.60;51.40;;;;;;5081653;28;20047;-63
2024/02/09 05:46:14;;;;;;;1.50;0.80;;;19.70;51.60;;;;;;5079081;28;20104;-62
2024/02/09 05:48:43;;;;;;;1.98;1.00;;;19.60;51.60;;;;;;5081388;28;20060;-68
2024/02/09 05:51:12;;;;;;;4.15;1.13;;;19.70;51.90;;;;;;5082017;28;20023;-68
2024/02/09 05:53:39;;;;;;;;;;;19.70;52.00;;;;;;5079244;28;20492;-68
2024/02/09 05:56:05;;;;;;;4.93;1.27;;;19.60;52.20;;;;;;5080622;28;19944;-68
2024/02/09 05:58:31;;;;;;;3.45;1.10;;;19.70;52.20;;;;;;5083119;28;20034;-68
2024/02/09 06:00:57;;;;;;;2.83;1.30;;;19.60;52.00;;;;;;5081718;28;20102;-68
2024/02/09 06:03:23;;;;;;;2.45;1.10;;;19.60;52.00;;;;;;5079683;28;20050;-68
2024/02/09 06:05:49;;;;;;;2.67;1.30;;;19.70;51.90;;;;;;5079299;28;20448;-68
2024/02/09 06:08:14;;;;;;;3.60;1.13;;;19.70;51.90;;;;;;5079732;28;20029;-68
2024/02/09 06:10:40;;;;;;;2.47;1.40;;;19.70;52.40;;;;;;5078402;28;20027;-68
2024/02/09 06:13:05;;;;;;;2.42;1.00;;;19.60;52.40;;;;;;5078084;28;20028;-68
2024/02/09 06:15:31;;;;;;;2.95;1.20;;;19.60;51.80;;;;;;5078650;28;20043;-68
2024/02/09 06:17:58;;;;;;;2.38;1.05;;;19.70;51.80;;;;;;5077847;28;20058;-68
2024/02/09 06:20:24;;;;;;;2.45;1.20;;;19.70;51.80;;;;;;5079907;28;20079;-68
2024/02/09 06:22:50;;;;;;;2.75;1.30;;;19.70;51.90;;;;;;5076009;28;20048;-68
2024/02/09 06:25:16;;;;;;;2.17;1.00;;;19.70;51.80;;;;;;5081578;28;20367;-68
2024/02/09 06:27:42;;;;;;;2.88;1.10;;;19.70;51.80;;;;;;5077678;28;20091;-68
2024/02/09 06:30:10;;;;;;;2.92;1.10;;;19.70;51.80;;;;;;5077886;28;20118;-69
2024/02/09 06:32:36;;;;;;;2.78;1.17;;;19.60;51.70;;;;;;5080104;28;20025;-68
2024/02/09 06:35:03;;;;;;;3.13;1.10;;;19.70;51.80;;;;;;5078082;28;20027;-68
2024/02/09 06:37:29;;;;;;;2.45;1.20;;;19.70;51.80;;;;;;5077333;28;20093;-69
2024/02/09 06:39:55;;;;;;;2.80;1.25;;;19.70;51.80;;;;;;5080569;28;20032;-69
2024/02/09 06:42:21;;;;;;;2.42;1.10;;;19.70;51.80;;;;;;5078508;28;20066;-68
2024/02/09 06:44:46;;;;;;;3.95;1.40;;;19.70;51.80;;;;;;5076394;28;20484;-68
2024/02/09 06:47:13;;;;;;;3.85;1.20;;;19.70;51.80;;;;;;5078522;28;20020;-68
2024/02/09 06:49:46;;;;;;;3.45;1.35;;;19.70;51.80;;;;;;5079868;28;20047;-69
2024/02/09 06:52:12;;;;;;;2.75;1.20;;;19.70;52.40;;;;;;5077011;28;20035;-68
2024/02/09 06:54:38;;;;;;;4.28;1.33;;;19.70;51.80;;;;;;5076388;28;20059;-69
2024/02/09 06:57:06;;;;;;;3.63;1.42;;;19.70;51.80;;;;;;5078058;28;20037;-63
2024/02/09 06:59:32;;;;;;;3.60;1.20;;;19.70;51.80;;;;;;5079385;28;20107;-63
2024/02/09 07:02:04;;;;;;;3.70;1.40;;;19.70;52.30;;;;;;5080807;28;20027;-62
2024/02/09 07:04:30;;;;;;;2.92;1.25;;;19.70;52.30;;;;;;5078674;28;20116;-63
2024/02/09 07:06:55;;;;;;;4.20;1.20;;;19.60;51.70;;;;;;5079902;28;20251;-64
2024/02/09 07:09:21;;;;;;;4.03;1.92;;;19.70;51.80;;;;;;5079674;28;20647;-65
2024/02/09 07:11:53;;;;;;;2.45;1.10;;;19.70;51.70;;;;;;5079281;28;20479;-65
2024/02/09 07:14:19;;;;;;;2.67;1.20;;;19.70;51.70;;;;;;5076856;28;20029;-65
2024/02/09 07:16:49;;;;;;;2.85;1.13;;;19.70;51.70;;;;;;5078325;28;20039;-65
2024/02/09 07:19:15;;;;;;;3.47;1.10;;;19.70;51.70;;;;;;5078986;28;20035;-65
2024/02/09 07:21:40;;;;;;;3.85;1.55;;;19.60;51.70;;;;;;5078459;28;20385;-65
2024/02/09 07:24:07;;;;;;;3.65;1.50;;;19.60;51.70;;;;;;5078993;28;20478;-65
2024/02/09 07:26:33;;;;;;;2.38;1.10;;;19.70;51.70;;;;;;5077794;28;20032;-65
2024/02/09 07:28:59;;;;;;;2.90;1.30;;;19.70;51.70;;;;;;5078877;28;20133;-65
2024/02/09 07:31:25;;;;;;;4.88;1.35;;;19.70;51.70;;;;;;5079386;28;20019;-65
2024/02/09 07:33:51;;;;;;;3.00;1.42;;;19.70;51.70;;;;;;5078479;28;20562;-65
2024/02/09 07:36:18;;;;;;;4.07;1.30;;;19.60;51.70;;;;;;5078877;28;20710;-65
2024/02/09 07:38:43;;;;;;;3.80;1.17;;;19.70;51.70;;;;;;5078642;28;20035;-64
2024/02/09 07:41:10;;;;;;;3.78;1.38;;;19.70;51.70;;;;;;5076666;28;20049;-65
2024/02/09 07:43:36;;;;;;;2.38;1.15;;;19.70;52.20;;;;;;5079302;28;20036;-65
2024/02/09 07:46:03;;;;;;;3.67;1.38;;;19.70;51.70;;;;;;5077329;28;20101;-65
2024/02/09 07:48:29;;;;;;;2.58;1.10;;;19.70;51.70;;;;;;5078764;28;20554;-65
2024/02/09 07:50:56;;;;;;;2.70;1.20;;;19.70;51.70;;;;;;5076496;28;20028;-65
2024/02/09 07:53:21;;;;;;;2.95;1.20;;;19.70;51.70;;;;;;5060795;28;20023;-65
2024/02/09 07:55:47;;;;;;;2.97;1.10;;;19.70;51.70;;;;;;5077264;28;20103;-65
2024/02/09 07:58:16;;;;;;;3.38;1.35;;;19.70;51.70;;;;;;5067907;28;20465;-65
2024/02/09 08:00:42;;;;;;;;;;;19.60;51.60;;;;;;5078117;28;20032;-65
2024/02/09 08:03:08;;;;;;;2.63;1.30;;;19.60;51.60;;;;;;5078822;28;19958;-64
2024/02/09 08:05:35;;;;;;;4.30;1.30;;;19.70;51.70;;;;;;5077988;28;20473;-65
2024/02/09 08:08:00;;;;;;;3.72;1.50;;;19.60;51.60;;;;;;5079468;28;20016;-68
2024/02/09 08:10:26;;;;;;;2.65;1.17;;;19.70;51.70;;;;;;5080727;28;20024;-69
2024/02/09 08:12:52;;;;;;;3.33;1.30;;;19.70;51.70;;;;;;5081894;28;20048;-69
2024/02/09 08:15:18;;;;;;;3.40;1.20;;;19.60;51.60;;;;;;5082665;28;20028;-68
2024/02/09 08:17:48;;;;;;;2.38;1.20;;;19.60;51.70;;;;;;5083861;28;20036;-62
2024/02/09 08:20:14;;;;;;;;;;;19.60;52.10;;;;;;5083996;28;20085;-62
2024/02/09 08:22:44;;;;;;;3.15;1.30;;;19.60;51.60;;;;;;5072603;28;19907;-62
2024/02/09 08:25:13;;;;;;;2.33;1.15;;;19.60;51.60;;;;;;5082908;28;20033;-62
2024/02/09 08:27:39;;;;;;;2.13;1.00;;;19.60;51.60;;;;;;5081258;28;20518;-62
2024/02/09 08:30:08;;;;;;;2.03;1.00;;;19.60;51.60;;;;;;5083604;28;20083;-63
2024/02/09 08:32:37;;;;;;;3.42;1.05;;;19.60;51.60;;;;;;5079610;28;20025;-62
2024/02/09 08:35:03;;;;;;;;;;;19.70;52.20;;;;;;5080935;28;20047;-61
2024/02/09 08:37:29;;;;;;;3.35;1.27;;;19.60;51.60;;;;;;5083578;28;20386;-62
2024/02/09 08:39:56;;;;;;;3.58;1.20;;;19.60;51.60;;;;;;5081579;28;20032;-62
2024/02/09 08:42:22;;;;;;;2.58;1.20;;;19.60;51.60;;;;;;5081818;28;20120;-62
2024/02/09 08:44:47;;;;;;;3.25;1.17;;;19.60;51.60;;;;;;5080078;28;20504;-61
2024/02/09 08:47:13;;;;;;;2.85;1.13;;;19.60;51.60;;;;;;5081329;28;20032;-61
2024/02/09 08:49:39;;;;;;;2.50;1.05;;;19.60;51.60;;;;;;5083277;28;20027;-63
2024/02/09 08:52:05;;;;;;;1.88;0.90;;;19.60;51.60;;;;;;5085139;28;20051;-63
2024/02/09 08:54:32;;;;;;;2.92;1.13;;;19.60;51.60;;;;;;5082013;28;20062;-62
2024/02/09 08:56:59;;;;;;;2.50;1.00;;;19.60;51.60;;;;;;5079356;28;20021;-61
2024/02/09 08:59:25;;;;;;;2.45;1.10;;;19.60;51.70;;;;;;5078986;28;20043;-62
2024/02/09 09:01:51;;;;;;;3.95;1.30;;;19.60;51.70;;;;;;5080523;28;20032;-61
2024/02/09 09:04:17;;;;;;;3.88;1.27;;;19.60;51.60;;;;;;5065998;28;20393;-61
2024/02/09 09:06:43;;;;;;;2.13;1.02;;;19.60;52.20;;;;;;5080674;28;20488;-61
2024/02/09 09:09:09;;;;;;;2.67;1.20;;;19.60;51.70;;;;;;5081511;28;20068;-63
2024/02/09 09:11:35;;;;;;;2.58;1.10;;;19.60;52.20;;;;;;5080264;28;20165;-61
2024/02/09 09:14:00;;;;;;;2.20;1.13;;;19.60;51.60;;;;;;5079749;28;20073;-62
2024/02/09 09:16:27;;;;;;;1.98;1.00;;;19.60;51.70;;;;;;5081619;28;20051;-62
2024/02/09 09:18:52;;;;;;;2.85;1.10;;;19.60;51.70;;;;;;5082720;28;20024;-63
2024/02/09 09:21:18;;;;;;;2.40;1.30;;;19.60;51.70;;;;;;5070655;28;20620;-62
2024/02/09 09:23:44;;;;;;;1.75;0.90;;;19.60;51.70;;;;;;5082453;28;20077;-63
2024/02/09 09:26:10;;;;;;;2.05;1.00;;;19.60;52.20;;;;;;5080101;28;20032;-63
2024/02/09 09:28:36;;;;;;;3.05;1.20;;;19.60;51.70;;;;;;5079578;28;20036;-63
2024/02/09 09:31:02;;;;;;;2.15;0.98;;;19.60;51.60;;;;;;5079920;28;20020;-61
2024/02/09 09:33:27;;;;;;;2.45;1.20;;;19.60;51.60;;;;;;5079983;28;20383;-61
2024/02/09 09:35:53;;;;;;;2.28;1.10;;;19.60;51.70;;;;;;5081594;28;20024;-61
2024/02/09 09:38:22;;;;;;;2.28;1.00;;;19.60;51.70;;;;;;5080202;28;20472;-63
2024/02/09 09:40:52;;;;;;;2.38;1.20;;;19.60;51.60;;;;;;5080511;28;20025;-62
2024/02/09 09:43:21;;;;;;;2.38;0.98;;;19.60;51.60;;;;;;5076242;28;20454;-63
2024/02/09 09:45:56;;;;;;;2.20;1.08;;;19.60;51.60;;;;;;5080180;28;20473;-61
2024/02/09 09:48:23;;;;;;;3.58;1.38;;;19.60;51.60;;;;;;5081158;28;20029;-62
2024/02/09 09:50:50;;;;;;;2.55;1.30;;;19.60;51.70;;;;;;5081551;28;20056;-62
2024/02/09 09:53:38;;;;;;;2.35;1.10;;;19.60;52.20;;;;;;5081311;28;20103;-62
2024/02/09 09:56:06;;;;;;;3.13;1.10;;;19.50;51.60;;;;;;5080351;28;20393;-63
2024/02/09 09:58:36;;;;;;;2.78;1.20;;;19.60;51.70;;;;;;5080383;28;20389;-61
2024/02/09 10:01:08;;;;;;;2.15;1.20;;;19.60;51.60;;;;;;5078178;28;20532;-62
2024/02/09 10:03:36;;;;;;;2.03;1.00;;;19.60;51.70;;;;;;5080315;28;20031;-61
2024/02/09 10:06:02;;;;;;;2.45;1.20;;;19.60;51.70;;;;;;5080740;28;20059;-62
2024/02/09 10:08:29;;;;;;;2.45;1.17;;;19.60;51.70;;;;;;5080503;28;20032;-61
2024/02/09 10:10:58;;;;;;;2.42;1.20;;;19.60;51.70;;;;;;5079740;28;20075;-63
2024/02/09 10:13:25;;;;;;;2.92;1.17;;;19.60;51.70;;;;;;5079705;28;20024;-62
2024/02/09 10:15:51;;;;;;;2.42;1.15;;;19.50;52.10;;;;;;5079882;28;20037;-61
2024/02/09 10:18:18;;;;;;;1.75;1.00;;;19.50;51.60;;;;;;5081587;28;20044;-61
2024/02/09 10:20:46;;;;;;;3.00;1.05;;;19.50;51.60;;;;;;5079687;28;20039;-62
2024/02/09 10:23:16;;;;;;;2.83;1.17;;;19.50;52.20;;;;;;5080330;28;20116;-61
2024/02/09 10:25:43;;;;;;;1.77;1.10;;;19.50;51.60;;;;;;5079927;28;20023;-61
2024/02/09 10:28:09;;;;;;;2.05;1.00;;;19.50;51.60;;;;;;5078628;28;20103;-65
2024/02/09 10:30:35;;;;;;;2.17;1.10;;;19.50;51.60;;;;;;5079204;28;20058;-65
2024/02/09 10:33:01;;;;;;;1.65;1.00;;;19.50;51.60;;;;;;5079945;28;20433;-65
2024/02/09 10:35:27;;;;;;;1.80;1.10;;;19.50;51.60;;;;;;5080637;28;20063;-65
2024/02/09 10:37:57;;;;;;;2.92;1.45;;;19.50;51.60;;;;;;5080119;28;20127;-65
2024/02/09 10:40:23;;;;;;;2.28;1.05;;;19.50;51.70;;;;;;5081022;28;20931;-65
2024/02/09 10:42:51;;;;;;;1.85;1.13;;;19.50;51.70;;;;;;5077248;28;20067;-65
2024/02/09 10:45:17;;;;;;;1.95;0.95;;;19.50;51.70;;;;;;5081218;28;20464;-65
2024/02/09 10:47:46;;;;;;;2.58;1.10;;;19.50;51.70;;;;;;5079503;28;20024;-65
2024/02/09 10:50:13;;;;;;;2.00;1.13;;;19.50;51.70;;;;;;5079776;28;20040;-65
2024/02/09 10:52:49;;;;;;;2.25;1.05;;;19.50;51.70;;;;;;5080073;28;20032;-65
2024/02/09 10:55:21;;;;;;;2.95;1.20;;;19.50;51.80;;;;;;5081101;28;20021;-65
2024/02/09 10:57:49;;;;;;;2.17;1.00;;;19.50;51.70;;;;;;5078538;28;20547;-65
2024/02/09 11:00:16;;;;;;;2.07;1.13;;;19.50;51.80;;;;;;5079715;28;20039;-65
2024/02/09 11:02:43;;;;;;;1.58;0.90;;;19.50;51.80;;;;;;5077239;28;20032;-65
2024/02/09 11:05:14;;;;;;;2.53;1.20;;;19.50;51.80;;;;;;5079440;28;20500;-65
2024/02/09 11:07:49;;;;;;;2.90;1.17;;;19.50;52.00;;;;;;5075616;28;20032;-65
2024/02/09 11:10:18;;;;;;;1.67;1.00;;;19.50;52.00;;;;;;5079818;28;20543;-65
2024/02/09 11:12:55;;;;;;;2.13;1.00;;;19.50;52.20;;;;;;5076587;28;20510;-65
2024/02/09 11:15:20;;;;;;;2.63;1.10;;;19.60;52.40;;;;;;5079233;28;20055;-65
2024/02/09 11:17:47;;;;;;;2.78;1.10;;;19.60;52.40;;;;;;5079162;28;20396;-65
2024/02/09 11:20:17;;;;;;;2.10;1.02;;;19.60;52.40;;;;;;5081085;28;20065;-65
2024/02/09 11:22:50;;;;;;;2.25;1.00;;;19.60;52.40;;;;;;5078243;28;20055;-65
2024/02/09 11:25:16;;;;;;;2.50;1.00;;;19.70;52.50;;;;;;5076912;28;20036;-65
2024/02/09 11:27:51;;;;;;;3.17;1.08;;;19.70;52.50;;;;;;5076006;28;20028;-65
2024/02/09 11:30:21;;;;;;;2.03;1.10;;;19.70;52.60;;;;;;5078542;28;20075;-65
2024/02/09 11:32:50;;;;;;;1.40;0.80;;;19.80;52.60;;;;;;5080666;28;20028;-66
2024/02/09 11:35:16;;;;;;;1.48;0.93;;;19.80;52.60;;;;;;5081388;28;20032;-65
2024/02/09 11:37:45;;;;;;;1.90;1.10;;;19.80;52.60;;;;;;5078154;28;20051;-62
2024/02/09 11:40:12;;;;;;;2.58;1.15;;;19.90;52.60;;;;;;5077974;28;20024;-63
2024/02/09 11:42:39;;;;;;;2.63;1.10;;;19.80;52.60;;;;;;5077319;28;20033;-63
2024/02/09 11:45:06;;;;;;;2.05;1.00;;;19.90;52.60;;;;;;5076406;28;20036;-62
2024/02/09 11:47:32;;;;;;;2.53;0.90;;;19.90;52.60;;;;;;5078848;28;20028;-68
2024/02/09 11:49:58;;;;;;;2.15;0.98;;;19.90;52.60;;;;;;5079467;28;20035;-63
2024/02/09 11:52:23;;;;;;;1.77;0.85;;;19.90;52.60;;;;;;5078683;28;20056;-62
2024/02/09 11:54:49;;;;;;;2.35;1.10;;;19.90;52.50;;;;;;5078362;28;20021;-63
2024/02/09 11:57:15;;;;;;;1.33;0.90;;;19.90;52.60;;;;;;5079587;28;20083;-63
2024/02/09 11:59:41;;;;;;;2.03;1.00;;;19.90;52.60;;;;;;5078425;28;20031;-63
2024/02/09 12:02:07;;;;;;;2.03;1.02;;;19.90;52.60;;;;;;5078258;28;20098;-62
2024/02/09 12:04:32;;;;;;;2.10;1.00;;;19.90;52.60;;;;;;5079230;28;20024;-62
2024/02/09 12:06:59;;;;;;;1.35;0.73;;;19.90;52.60;;;;;;5077663;28;20495;-63
2024/02/09 12:09:30;;;;;;;1.77;1.00;;;19.90;52.60;;;;;;5075502;28;20074;-62
2024/02/09 12:11:55;;;;;;;1.88;0.90;;;19.90;52.60;;;;;;5078878;28;20536;-62
2024/02/09 12:14:21;;;;;;;2.00;1.00;;;19.90;52.60;;;;;;5078121;28;20157;-63
2024/02/09 12:16:46;;;;;;;2.08;0.90;;;19.90;52.60;;;;;;5081706;28;20481;-62
2024/02/09 12:19:12;;;;;;;2.70;1.08;;;19.90;52.60;;;;;;5078793;28;20028;-62
2024/02/09 12:21:39;;;;;;;3.00;1.00;;;19.90;52.60;;;;;;5076645;28;20025;-62
2024/02/09 12:24:09;;;;;;;1.30;0.90;;;19.90;52.60;;;;;;5077326;28;20040;-62
2024/02/09 12:26:37;;;;;;;2.10;1.00;;;20.00;52.70;;;;;;5076720;28;20036;-62
2024/02/09 12:29:11;;;;;;;1.40;0.88;;;20.00;52.80;;;;;;5077184;28;20035;-63
2024/02/09 12:31:36;;;;;;;1.98;0.90;;;20.00;52.70;;;;;;5077240;28;20024;-62
2024/02/09 12:34:02;;;;;;;2.60;1.08;;;20.00;52.70;;;;;;5077993;28;20050;-62
2024/02/09 12:36:28;;;;;;;1.88;1.05;;;20.10;52.70;;;;;;5076174;28;20028;-62
2024/02/09 12:39:04;;;;;;;1.52;1.00;;;20.00;52.70;;;;;;5078603;28;20032;-62
2024/02/09 12:41:30;;;;;;;1.77;0.90;;;20.10;52.80;;;;;;5077968;28;20039;-62
2024/02/09 12:44:00;;;;;;;2.55;1.10;;;20.00;52.80;;;;;;5076503;28;20412;-62
2024/02/09 12:46:29;;;;;;;2.20;1.05;;;20.10;52.80;;;;;;5077808;28;20476;-64
2024/02/09 12:48:58;;;;;;;1.35;0.90;;;20.00;52.80;;;;;;5068719;28;20028;-62
2024/02/09 12:51:24;;;;;;;1.52;0.90;;;20.10;52.80;;;;;;5077395;28;20036;-62
2024/02/09 12:53:49;;;;;;;1.30;0.90;;;20.10;52.80;;;;;;5078656;28;20016;-63
2024/02/09 12:56:17;;;;;;;1.63;0.80;;;20.10;52.90;;;;;;5080012;28;20024;-62
2024/02/09 12:58:46;;;;;;;2.30;1.00;;;20.00;52.80;;;;;;5080099;28;20035;-66
2024/02/09 13:01:12;;;;;;;;;;;20.00;52.80;;;;;;5083077;28;20028;-66
2024/02/09 13:03:40;;;;;;;1.85;1.00;;;20.00;52.90;;;;;;5082157;28;19904;-66
2024/02/09 13:06:06;;;;;;;1.98;1.00;;;20.00;52.80;;;;;;5082356;28;20562;-65
2024/02/09 13:08:32;;;;;;;3.78;1.10;;;20.10;52.90;;;;;;5081687;28;20056;-65
2024/02/09 13:10:58;;;;;;;1.40;0.80;;;20.00;52.70;;;;;;5080931;28;20017;-65
2024/02/09 13:13:24;;;;;;;1.88;0.80;;;20.00;53.00;;;;;;5080672;28;20016;-65
2024/02/09 13:15:51;;;;;;;1.75;0.90;;;20.00;52.80;;;;;;5078949;28;20024;-66
2024/02/09 13:18:16;;;;;;;2.05;1.00;;;20.00;52.80;;;;;;5080532;28;20551;-65
2024/02/09 13:20:45;;;;;;;1.83;0.95;;;20.00;52.80;;;;;;5082343;28;20108;-65
2024/02/09 13:23:11;;;;;;;1.88;0.90;;;20.00;52.90;;;;;;5084575;28;20038;-65
2024/02/09 13:25:40;;;;;;;2.20;1.00;;;20.00;52.90;;;;;;5078874;28;20032;-66
2024/02/09 13:28:07;;;;;;;1.52;0.93;;;20.00;52.90;;;;;;5082380;28;20423;-65
2024/02/09 13:30:33;;;;;;;2.03;1.10;;;20.00;52.90;;;;;;5080417;28;20094;-66
2024/02/09 13:33:00;;;;;;;1.92;0.90;;;20.00;52.90;;;;;;5079154;28;20025;-65
2024/02/09 13:35:26;;;;;;;1.85;1.10;;;20.00;52.90;;;;;;5082134;28;20464;-65
2024/02/09 13:37:52;;;;;;;1.88;0.93;;;20.00;52.90;;;;;;5082991;28;20118;-65
2024/02/09 13:40:19;;;;;;;1.75;0.98;;;20.00;52.90;;;;;;5081381;28;20116;-65
2024/02/09 13:42:49;;;;;;;2.88;1.10;;;20.00;53.50;;;;;;5076471;28;20027;-65
2024/02/09 13:45:26;;;;;;;2.25;1.13;;;20.00;52.90;;;;;;5079588;28;20082;-65
2024/02/09 13:47:52;;;;;;;1.85;1.00;;;20.00;53.00;;;;;;5082008;28;20370;-65
2024/02/09 13:50:23;;;;;;;2.40;1.10;;;20.10;53.00;;;;;;5080929;28;20020;-66
2024/02/09 13:52:49;;;;;;;1.83;1.02;;;20.00;52.90;;;;;;5079111;28;20096;-65
2024/02/09 13:55:17;;;;;;;1.27;0.90;;;20.00;53.00;;;;;;5079889;28;20576;-66
2024/02/09 13:57:47;;;;;;;1.85;1.05;;;20.00;53.00;;;;;;5080695;28;20607;-69
2024/02/09 14:00:16;;;;;;;1.83;1.00;;;20.00;52.90;;;;;;5079463;28;20021;-68
2024/02/09 14:02:42;;;;;;;1.05;0.70;;;20.00;52.90;;;;;;5078450;28;20059;-69
2024/02/09 14:05:08;;;;;;;2.40;1.10;;;20.00;53.00;;;;;;5079737;28;20507;-68
2024/02/09 14:07:41;;;;;;;1.73;1.02;;;20.10;52.90;;;;;;5079880;28;20661;-62
2024/02/09 14:10:11;;;;;;;1.52;0.93;;;20.10;52.90;;;;;;5079404;28;20017;-65
2024/02/09 14:12:38;;;;;;;3.38;1.00;;;20.00;52.90;;;;;;5079403;28;20052;-65
2024/02/09 14:15:04;;;;;;;1.27;0.80;;;20.10;52.90;;;;;;5079520;28;20066;-65
2024/02/09 14:17:33;;;;;;;1.70;1.00;;;20.20;52.80;;;;;;5079957;28;20063;-62
2024/02/09 14:19:59;;;;;;;1.57;1.00;;;20.10;52.70;;;;;;5079806;28;20024;-65
2024/02/09 14:22:25;;;;;;;1.73;0.90;;;20.10;52.70;;;;;;5071413;28;20426;-63
2024/02/09 14:24:50;;;;;;;1.45;0.90;;;20.10;52.60;;;;;;5080434;28;20028;-63
2024/02/09 14:27:16;;;;;;;1.65;1.02;;;20.10;52.60;;;;;;5079781;28;20072;-62
2024/02/09 14:29:45;;;;;;;1.65;0.90;;;20.10;52.60;;;;;;5078037;28;20032;-63
2024/02/09 14:32:12;;;;;;;1.92;1.00;;;20.20;52.60;;;;;;5079786;28;20056;-64
2024/02/09 14:34:38;;;;;;;1.33;0.80;;;20.10;52.60;;;;;;5077009;28;20035;-63
2024/02/09 14:37:04;;;;;;;1.60;0.90;;;20.10;52.50;;;;;;5080450;28;20492;-63
2024/02/09 14:39:30;;;;;;;1.65;0.90;;;20.20;52.60;;;;;;5079204;28;20028;-63